sensor_id;sensor_type;location;lat;lon;timestamp;pressure;altitude;pressure_sealevel;temperature;humidity
68822;BME280;55834;50.870;4.606;2022-08-19T00:01:53;100699.47;;;19.77;51.27
68822;BME280;55834;50.870;4.606;2022-08-19T00:04:25;100702.31;;;19.61;52.85
68822;BME280;55834;50.870;4.606;2022-08-19T00:06:51;100705.22;;;19.71;52.22
68822;BME280;55834;50.870;4.606;2022-08-19T00:09:20;100718.88;;;19.80;51.33
68822;BME280;55834;50.870;4.606;2022-08-19T00:11:45;100716.19;;;19.80;51.19
68822;BME280;55834;50.870;4.606;2022-08-19T00:14:13;100720.78;;;19.78;51.23
68822;BME280;55834;50.870;4.606;2022-08-19T00:16:40;100723.47;;;19.78;51.38
68822;BME280;55834;50.870;4.606;2022-08-19T00:19:07;100725.16;;;19.67;51.15
68822;BME280;55834;50.870;4.606;2022-08-19T00:21:33;100724.59;;;19.61;51.58
68822;BME280;55834;50.870;4.606;2022-08-19T00:24:05;100731.78;;;19.61;51.45
68822;BME280;55834;50.870;4.606;2022-08-19T00:26:31;100720.84;;;19.64;51.53
68822;BME280;55834;50.870;4.606;2022-08-19T00:28:56;100726.81;;;19.55;52.06
68822;BME280;55834;50.870;4.606;2022-08-19T00:31:22;100723.38;;;19.53;51.58
68822;BME280;55834;50.870;4.606;2022-08-19T00:33:47;100720.72;;;19.53;51.48
68822;BME280;55834;50.870;4.606;2022-08-19T00:36:16;100721.47;;;19.55;51.49
68822;BME280;55834;50.870;4.606;2022-08-19T00:38:41;100719.75;;;19.54;51.11
68822;BME280;55834;50.870;4.606;2022-08-19T00:41:09;100728.75;;;19.53;51.27
68822;BME280;55834;50.870;4.606;2022-08-19T00:43:35;100717.09;;;19.54;51.66
68822;BME280;55834;50.870;4.606;2022-08-19T00:46:01;100717.56;;;19.33;51.94
68822;BME280;55834;50.870;4.606;2022-08-19T00:48:31;100719.06;;;19.37;51.55
68822;BME280;55834;50.870;4.606;2022-08-19T00:50:57;100719.81;;;19.40;51.37
68822;BME280;55834;50.870;4.606;2022-08-19T00:53:26;100717.03;;;19.41;51.42
68822;BME280;55834;50.870;4.606;2022-08-19T00:55:55;100719.06;;;19.37;51.40
68822;BME280;55834;50.870;4.606;2022-08-19T00:58:22;100730.94;;;19.33;52.14
68822;BME280;55834;50.870;4.606;2022-08-19T01:00:49;100728.03;;;18.81;54.15
68822;BME280;55834;50.870;4.606;2022-08-19T01:03:18;100735.00;;;18.55;55.44
68822;BME280;55834;50.870;4.606;2022-08-19T01:05:45;100733.88;;;18.73;54.44
68822;BME280;55834;50.870;4.606;2022-08-19T01:08:11;100734.06;;;18.56;55.98
68822;BME280;55834;50.870;4.606;2022-08-19T01:10:42;100715.16;;;18.73;55.30
68822;BME280;55834;50.870;4.606;2022-08-19T01:13:08;100719.31;;;18.91;54.08
68822;BME280;55834;50.870;4.606;2022-08-19T01:15:42;100715.66;;;19.07;53.49
68822;BME280;55834;50.870;4.606;2022-08-19T01:18:11;100713.06;;;19.20;53.14
68822;BME280;55834;50.870;4.606;2022-08-19T01:20:37;100713.81;;;19.22;53.16
68822;BME280;55834;50.870;4.606;2022-08-19T01:23:04;100717.19;;;19.25;52.30
68822;BME280;55834;50.870;4.606;2022-08-19T01:25:33;100715.09;;;19.16;52.81
68822;BME280;55834;50.870;4.606;2022-08-19T01:28:00;100720.13;;;19.21;52.66
68822;BME280;55834;50.870;4.606;2022-08-19T01:30:29;100714.97;;;19.17;52.74
68822;BME280;55834;50.870;4.606;2022-08-19T01:32:56;100710.66;;;19.15;52.60
68822;BME280;55834;50.870;4.606;2022-08-19T01:35:23;100706.13;;;19.03;53.16
68822;BME280;55834;50.870;4.606;2022-08-19T01:37:55;100702.88;;;18.98;54.08
68822;BME280;55834;50.870;4.606;2022-08-19T01:40:23;100698.00;;;19.04;53.42
68822;BME280;55834;50.870;4.606;2022-08-19T01:42:50;100703.91;;;19.09;53.06
68822;BME280;55834;50.870;4.606;2022-08-19T01:45:17;100703.59;;;19.14;53.01
68822;BME280;55834;50.870;4.606;2022-08-19T01:47:42;100708.72;;;19.04;53.56
68822;BME280;55834;50.870;4.606;2022-08-19T01:50:09;100708.41;;;19.09;53.43
68822;BME280;55834;50.870;4.606;2022-08-19T01:52:39;100715.03;;;18.89;53.93
68822;BME280;55834;50.870;4.606;2022-08-19T01:55:08;100723.16;;;18.73;53.92
68822;BME280;55834;50.870;4.606;2022-08-19T01:57:35;100725.47;;;18.79;53.89
68822;BME280;55834;50.870;4.606;2022-08-19T02:00:02;100727.94;;;18.82;53.62
68822;BME280;55834;50.870;4.606;2022-08-19T02:02:30;100730.13;;;18.90;53.76
68822;BME280;55834;50.870;4.606;2022-08-19T02:04:55;100731.72;;;18.92;53.42
68822;BME280;55834;50.870;4.606;2022-08-19T02:07:21;100725.31;;;18.95;53.67
68822;BME280;55834;50.870;4.606;2022-08-19T02:09:47;100722.47;;;18.84;53.65
68822;BME280;55834;50.870;4.606;2022-08-19T02:12:13;100725.16;;;18.84;53.43
68822;BME280;55834;50.870;4.606;2022-08-19T02:14:39;100724.00;;;18.88;53.09
68822;BME280;55834;50.870;4.606;2022-08-19T02:17:05;100729.19;;;18.77;53.61
68822;BME280;55834;50.870;4.606;2022-08-19T02:19:30;100717.50;;;18.78;53.71
68822;BME280;55834;50.870;4.606;2022-08-19T02:21:58;100722.22;;;18.74;53.60
68822;BME280;55834;50.870;4.606;2022-08-19T02:24:23;100715.25;;;18.57;53.82
68822;BME280;55834;50.870;4.606;2022-08-19T02:26:49;100716.75;;;18.47;54.13
68822;BME280;55834;50.870;4.606;2022-08-19T02:29:14;100720.78;;;18.54;53.58
68822;BME280;55834;50.870;4.606;2022-08-19T02:31:39;100721.56;;;18.56;53.39
68822;BME280;55834;50.870;4.606;2022-08-19T02:34:05;100722.69;;;18.52;52.93
68822;BME280;55834;50.870;4.606;2022-08-19T02:36:30;100736.75;;;18.56;53.26
68822;BME280;55834;50.870;4.606;2022-08-19T02:38:56;100734.25;;;18.53;52.74
68822;BME280;55834;50.870;4.606;2022-08-19T02:41:25;100734.88;;;18.42;53.32
68822;BME280;55834;50.870;4.606;2022-08-19T02:43:50;100736.38;;;18.32;53.06
68822;BME280;55834;50.870;4.606;2022-08-19T02:46:23;100729.97;;;18.20;53.49
68822;BME280;55834;50.870;4.606;2022-08-19T02:48:51;100729.78;;;18.23;52.00
68822;BME280;55834;50.870;4.606;2022-08-19T02:51:25;100728.84;;;18.24;52.64
68822;BME280;55834;50.870;4.606;2022-08-19T02:53:51;100726.84;;;18.28;52.73
68822;BME280;55834;50.870;4.606;2022-08-19T02:56:17;100731.97;;;18.16;53.25
68822;BME280;55834;50.870;4.606;2022-08-19T02:58:43;100734.47;;;18.19;53.05
68822;BME280;55834;50.870;4.606;2022-08-19T03:01:10;100731.91;;;18.18;52.42
68822;BME280;55834;50.870;4.606;2022-08-19T03:03:36;100722.69;;;18.08;53.26
68822;BME280;55834;50.870;4.606;2022-08-19T03:06:12;100718.34;;;18.21;52.52
68822;BME280;55834;50.870;4.606;2022-08-19T03:08:40;100723.69;;;18.21;51.62
68822;BME280;55834;50.870;4.606;2022-08-19T03:11:13;100730.06;;;18.18;51.80
68822;BME280;55834;50.870;4.606;2022-08-19T03:13:38;100728.34;;;18.17;51.32
68822;BME280;55834;50.870;4.606;2022-08-19T03:16:04;100729.97;;;18.20;51.62
68822;BME280;55834;50.870;4.606;2022-08-19T03:18:29;100720.69;;;18.11;50.80
68822;BME280;55834;50.870;4.606;2022-08-19T03:20:56;100723.63;;;17.92;52.65
68822;BME280;55834;50.870;4.606;2022-08-19T03:23:23;100722.84;;;17.90;52.53
68822;BME280;55834;50.870;4.606;2022-08-19T03:25:52;100727.94;;;17.95;52.13
68822;BME280;55834;50.870;4.606;2022-08-19T03:28:18;100721.75;;;17.94;52.61
68822;BME280;55834;50.870;4.606;2022-08-19T03:30:59;100718.56;;;17.88;52.61
68822;BME280;55834;50.870;4.606;2022-08-19T03:33:25;100725.81;;;17.86;52.48
68822;BME280;55834;50.870;4.606;2022-08-19T03:36:14;100712.53;;;17.84;52.19
68822;BME280;55834;50.870;4.606;2022-08-19T03:38:42;100711.13;;;17.93;52.20
68822;BME280;55834;50.870;4.606;2022-08-19T03:41:12;100706.78;;;17.76;51.70
68822;BME280;55834;50.870;4.606;2022-08-19T03:43:39;100718.47;;;17.73;51.85
68822;BME280;55834;50.870;4.606;2022-08-19T03:46:09;100723.69;;;17.61;52.59
68822;BME280;55834;50.870;4.606;2022-08-19T03:48:37;100715.19;;;17.68;52.55
68822;BME280;55834;50.870;4.606;2022-08-19T03:51:03;100715.13;;;17.70;52.59
68822;BME280;55834;50.870;4.606;2022-08-19T03:53:31;100713.53;;;17.51;52.27
68822;BME280;55834;50.870;4.606;2022-08-19T03:55:59;100717.69;;;17.41;53.23
68822;BME280;55834;50.870;4.606;2022-08-19T03:58:29;100713.44;;;17.53;52.63
68822;BME280;55834;50.870;4.606;2022-08-19T04:00:58;100711.25;;;17.59;52.38
68822;BME280;55834;50.870;4.606;2022-08-19T04:03:24;100718.34;;;17.61;52.15
68822;BME280;55834;50.870;4.606;2022-08-19T04:05:51;100722.75;;;17.46;52.33
68822;BME280;55834;50.870;4.606;2022-08-19T04:08:16;100718.34;;;17.45;52.74
68822;BME280;55834;50.870;4.606;2022-08-19T04:18:38;100733.34;;;17.16;52.67
68822;BME280;55834;50.870;4.606;2022-08-19T04:23:44;100732.59;;;17.13;53.47
68822;BME280;55834;50.870;4.606;2022-08-19T04:26:18;100733.47;;;17.14;52.97
68822;BME280;55834;50.870;4.606;2022-08-19T04:28:45;100735.31;;;16.96;53.83
68822;BME280;55834;50.870;4.606;2022-08-19T04:48:21;100741.34;;;17.16;54.51
68822;BME280;55834;50.870;4.606;2022-08-19T04:54:41;100741.09;;;17.20;54.53
68822;BME280;55834;50.870;4.606;2022-08-19T05:07:39;100770.34;;;17.06;54.46
68822;BME280;55834;50.870;4.606;2022-08-19T05:10:06;100766.84;;;17.05;54.59
68822;BME280;55834;50.870;4.606;2022-08-19T05:12:33;100764.06;;;17.07;55.15
68822;BME280;55834;50.870;4.606;2022-08-19T05:14:59;100767.19;;;17.15;54.70
68822;BME280;55834;50.870;4.606;2022-08-19T05:17:26;100770.34;;;17.22;54.82
68822;BME280;55834;50.870;4.606;2022-08-19T05:19:52;100775.13;;;17.17;54.88
68822;BME280;55834;50.870;4.606;2022-08-19T05:22:36;100770.44;;;17.04;56.19
68822;BME280;55834;50.870;4.606;2022-08-19T05:25:08;100779.72;;;17.13;56.40
68822;BME280;55834;50.870;4.606;2022-08-19T05:27:34;100773.28;;;17.17;55.56
68822;BME280;55834;50.870;4.606;2022-08-19T05:40:49;100764.34;;;17.34;56.12
68822;BME280;55834;50.870;4.606;2022-08-19T05:43:15;100762.34;;;17.53;55.73
68822;BME280;55834;50.870;4.606;2022-08-19T05:46:01;100757.97;;;17.52;55.88
68822;BME280;55834;50.870;4.606;2022-08-19T05:49:08;100759.00;;;17.50;55.82
68822;BME280;55834;50.870;4.606;2022-08-19T05:51:36;100763.38;;;17.67;55.71
68822;BME280;55834;50.870;4.606;2022-08-19T05:54:10;100762.25;;;17.87;55.65
68822;BME280;55834;50.870;4.606;2022-08-19T05:56:46;100761.69;;;17.96;54.76
68822;BME280;55834;50.870;4.606;2022-08-19T05:59:15;100762.97;;;18.04;54.69
68822;BME280;55834;50.870;4.606;2022-08-19T06:01:43;100762.22;;;18.17;55.16
68822;BME280;55834;50.870;4.606;2022-08-19T06:04:11;100771.66;;;18.08;54.54
68822;BME280;55834;50.870;4.606;2022-08-19T06:06:37;100778.59;;;18.26;54.74
68822;BME280;55834;50.870;4.606;2022-08-19T06:09:04;100769.72;;;17.96;55.15
68822;BME280;55834;50.870;4.606;2022-08-19T06:11:43;100774.88;;;17.99;55.15
68822;BME280;55834;50.870;4.606;2022-08-19T06:14:13;100764.56;;;18.37;54.77
68822;BME280;55834;50.870;4.606;2022-08-19T06:16:41;100758.13;;;18.70;53.47
68822;BME280;55834;50.870;4.606;2022-08-19T06:19:10;100771.03;;;18.33;54.15
68822;BME280;55834;50.870;4.606;2022-08-19T06:21:37;100765.72;;;18.47;54.03
68822;BME280;55834;50.870;4.606;2022-08-19T06:24:05;100772.63;;;18.66;54.39
68822;BME280;55834;50.870;4.606;2022-08-19T06:26:32;100772.09;;;18.31;54.92
68822;BME280;55834;50.870;4.606;2022-08-19T06:28:59;100770.91;;;18.65;53.65
68822;BME280;55834;50.870;4.606;2022-08-19T06:31:26;100768.44;;;18.76;54.30
68822;BME280;55834;50.870;4.606;2022-08-19T06:33:52;100766.72;;;18.75;53.99
68822;BME280;55834;50.870;4.606;2022-08-19T06:36:23;100765.66;;;18.92;53.49
68822;BME280;55834;50.870;4.606;2022-08-19T06:38:56;100766.88;;;19.01;53.98
68822;BME280;55834;50.870;4.606;2022-08-19T06:41:25;100756.47;;;19.25;53.45
68822;BME280;55834;50.870;4.606;2022-08-19T06:43:51;100761.59;;;19.42;53.00
68822;BME280;55834;50.870;4.606;2022-08-19T06:46:17;100768.63;;;19.30;52.98
68822;BME280;55834;50.870;4.606;2022-08-19T06:48:44;100763.75;;;19.50;53.01
68822;BME280;55834;50.870;4.606;2022-08-19T06:51:09;100775.69;;;19.03;53.36
68822;BME280;55834;50.870;4.606;2022-08-19T06:53:35;100775.81;;;18.42;54.65
68822;BME280;55834;50.870;4.606;2022-08-19T06:56:00;100772.44;;;18.98;54.03
68822;BME280;55834;50.870;4.606;2022-08-19T06:58:31;100764.75;;;19.61;53.01
68822;BME280;55834;50.870;4.606;2022-08-19T07:01:01;100761.88;;;19.37;52.60
68822;BME280;55834;50.870;4.606;2022-08-19T07:03:30;100772.75;;;19.49;52.93
68822;BME280;55834;50.870;4.606;2022-08-19T07:05:57;100773.13;;;19.57;52.08
68822;BME280;55834;50.870;4.606;2022-08-19T07:08:24;100773.66;;;19.89;52.30
68822;BME280;55834;50.870;4.606;2022-08-19T07:10:51;100777.84;;;19.66;52.32
68822;BME280;55834;50.870;4.606;2022-08-19T07:13:16;100787.25;;;19.86;51.72
68822;BME280;55834;50.870;4.606;2022-08-19T07:15:42;100777.94;;;19.92;52.30
68822;BME280;55834;50.870;4.606;2022-08-19T07:18:07;100771.44;;;19.96;52.57
68822;BME280;55834;50.870;4.606;2022-08-19T07:20:32;100776.94;;;20.07;52.20
68822;BME280;55834;50.870;4.606;2022-08-19T07:22:58;100780.25;;;19.98;52.49
68822;BME280;55834;50.870;4.606;2022-08-19T07:25:23;100787.19;;;20.53;51.56
68822;BME280;55834;50.870;4.606;2022-08-19T07:27:49;100787.28;;;20.39;50.68
68822;BME280;55834;50.870;4.606;2022-08-19T07:30:15;100783.75;;;20.51;51.87
68822;BME280;55834;50.870;4.606;2022-08-19T07:32:40;100792.78;;;20.63;49.96
68822;BME280;55834;50.870;4.606;2022-08-19T07:35:07;100786.28;;;20.14;51.72
68822;BME280;55834;50.870;4.606;2022-08-19T07:37:34;100794.50;;;19.30;54.10
68822;BME280;55834;50.870;4.606;2022-08-19T07:40:04;100790.06;;;19.43;54.04
68822;BME280;55834;50.870;4.606;2022-08-19T07:42:29;100775.03;;;20.22;52.05
68822;BME280;55834;50.870;4.606;2022-08-19T07:44:55;100781.41;;;20.46;50.49
68822;BME280;55834;50.870;4.606;2022-08-19T07:47:20;100777.78;;;20.08;52.29
68822;BME280;55834;50.870;4.606;2022-08-19T07:49:46;100784.34;;;19.62;53.51
68822;BME280;55834;50.870;4.606;2022-08-19T07:52:12;100781.56;;;20.18;52.79
68822;BME280;55834;50.870;4.606;2022-08-19T07:54:39;100791.25;;;20.33;50.89
68822;BME280;55834;50.870;4.606;2022-08-19T07:57:06;100802.44;;;18.74;55.77
68822;BME280;55834;50.870;4.606;2022-08-19T07:59:32;100787.75;;;18.96;55.41
68822;BME280;55834;50.870;4.606;2022-08-19T08:01:58;100777.69;;;20.09;53.40
68822;BME280;55834;50.870;4.606;2022-08-19T08:04:26;100787.19;;;20.40;51.85
68822;BME280;55834;50.870;4.606;2022-08-19T08:07:10;100793.63;;;20.50;51.03
68822;BME280;55834;50.870;4.606;2022-08-19T08:09:56;100791.16;;;20.35;52.17
68822;BME280;55834;50.870;4.606;2022-08-19T08:12:28;100791.75;;;19.58;54.31
68822;BME280;55834;50.870;4.606;2022-08-19T08:14:58;100798.81;;;20.14;52.29
68822;BME280;55834;50.870;4.606;2022-08-19T08:17:26;100806.03;;;20.26;52.58
68822;BME280;55834;50.870;4.606;2022-08-19T08:19:53;100807.69;;;19.74;53.69
68822;BME280;55834;50.870;4.606;2022-08-19T08:22:20;100810.38;;;20.01;52.00
68822;BME280;55834;50.870;4.606;2022-08-19T08:25:15;100822.81;;;20.55;52.94
68822;BME280;55834;50.870;4.606;2022-08-19T08:27:43;100812.38;;;21.14;50.62
68822;BME280;55834;50.870;4.606;2022-08-19T08:30:11;100819.91;;;21.09;49.90
68822;BME280;55834;50.870;4.606;2022-08-19T08:32:37;100819.69;;;21.12;50.30
68822;BME280;55834;50.870;4.606;2022-08-19T08:35:05;100826.06;;;19.10;54.76
68822;BME280;55834;50.870;4.606;2022-08-19T08:37:31;100820.88;;;20.04;53.64
68822;BME280;55834;50.870;4.606;2022-08-19T08:39:56;100829.91;;;19.89;54.01
68822;BME280;55834;50.870;4.606;2022-08-19T08:42:34;100827.53;;;19.84;53.29
68822;BME280;55834;50.870;4.606;2022-08-19T08:45:12;100827.44;;;20.91;51.97
68822;BME280;55834;50.870;4.606;2022-08-19T08:47:41;100830.47;;;20.87;50.44
68822;BME280;55834;50.870;4.606;2022-08-19T08:50:13;100820.59;;;20.22;52.06
68822;BME280;55834;50.870;4.606;2022-08-19T08:52:44;100824.34;;;20.85;51.29
68822;BME280;55834;50.870;4.606;2022-08-19T08:55:17;100830.31;;;21.14;51.20
68822;BME280;55834;50.870;4.606;2022-08-19T08:57:52;100829.44;;;21.26;50.51
68822;BME280;55834;50.870;4.606;2022-08-19T09:00:24;100822.44;;;21.24;50.71
68822;BME280;55834;50.870;4.606;2022-08-19T09:02:52;100818.50;;;21.66;50.28
68822;BME280;55834;50.870;4.606;2022-08-19T09:05:19;100818.50;;;21.90;50.03
68822;BME280;55834;50.870;4.606;2022-08-19T09:10:42;100824.91;;;21.76;49.49
68822;BME280;55834;50.870;4.606;2022-08-19T09:16:16;100828.41;;;21.53;49.85
68822;BME280;55834;50.870;4.606;2022-08-19T09:18:49;100827.78;;;21.86;49.89
68822;BME280;55834;50.870;4.606;2022-08-19T09:21:17;100825.50;;;22.17;48.79
68822;BME280;55834;50.870;4.606;2022-08-19T09:23:43;100830.00;;;22.16;48.88
68822;BME280;55834;50.870;4.606;2022-08-19T09:26:14;100840.88;;;20.79;51.36
68822;BME280;55834;50.870;4.606;2022-08-19T09:28:41;100838.13;;;20.40;52.46
68822;BME280;55834;50.870;4.606;2022-08-19T09:31:11;100838.78;;;21.21;51.22
68822;BME280;55834;50.870;4.606;2022-08-19T09:33:37;100838.84;;;20.69;51.80
68822;BME280;55834;50.870;4.606;2022-08-19T09:36:07;100834.16;;;21.23;51.09
68822;BME280;55834;50.870;4.606;2022-08-19T09:38:34;100835.09;;;21.47;50.20
68822;BME280;55834;50.870;4.606;2022-08-19T09:41:03;100834.47;;;21.44;49.51
68822;BME280;55834;50.870;4.606;2022-08-19T09:43:30;100838.00;;;21.44;49.81
68822;BME280;55834;50.870;4.606;2022-08-19T09:45:56;100838.63;;;20.98;51.77
68822;BME280;55834;50.870;4.606;2022-08-19T09:48:21;100837.66;;;20.99;51.88
68822;BME280;55834;50.870;4.606;2022-08-19T09:50:47;100833.69;;;21.54;50.69
68822;BME280;55834;50.870;4.606;2022-08-19T09:53:12;100842.22;;;21.48;50.57
68822;BME280;55834;50.870;4.606;2022-08-19T09:55:42;100849.22;;;21.12;51.37
68822;BME280;55834;50.870;4.606;2022-08-19T09:58:09;100844.97;;;21.59;50.61
68822;BME280;55834;50.870;4.606;2022-08-19T10:00:37;100834.00;;;21.87;49.52
68822;BME280;55834;50.870;4.606;2022-08-19T10:03:03;100839.75;;;21.93;50.11
68822;BME280;55834;50.870;4.606;2022-08-19T10:05:28;100847.13;;;20.39;52.24
68822;BME280;55834;50.870;4.606;2022-08-19T10:08:13;100847.09;;;20.66;52.37
68822;BME280;55834;50.870;4.606;2022-08-19T10:10:38;100844.69;;;21.26;51.44
68822;BME280;55834;50.870;4.606;2022-08-19T10:13:04;100832.69;;;21.68;50.36
68822;BME280;55834;50.870;4.606;2022-08-19T10:15:29;100832.28;;;21.85;49.79
68822;BME280;55834;50.870;4.606;2022-08-19T10:17:55;100836.22;;;21.45;50.50
68822;BME280;55834;50.870;4.606;2022-08-19T10:20:21;100836.91;;;20.84;52.41
68822;BME280;55834;50.870;4.606;2022-08-19T10:22:47;100841.47;;;21.21;51.53
68822;BME280;55834;50.870;4.606;2022-08-19T10:25:13;100834.00;;;21.62;49.78
68822;BME280;55834;50.870;4.606;2022-08-19T10:27:39;100832.16;;;22.00;49.44
68822;BME280;55834;50.870;4.606;2022-08-19T10:30:06;100839.38;;;20.87;51.14
68822;BME280;55834;50.870;4.606;2022-08-19T10:32:31;100830.56;;;20.72;51.90
68822;BME280;55834;50.870;4.606;2022-08-19T10:34:57;100825.91;;;21.26;52.02
68822;BME280;55834;50.870;4.606;2022-08-19T10:37:22;100820.50;;;21.38;51.93
68822;BME280;55834;50.870;4.606;2022-08-19T10:39:48;100820.69;;;21.85;50.15
68822;BME280;55834;50.870;4.606;2022-08-19T10:42:13;100817.47;;;22.39;49.26
68822;BME280;55834;50.870;4.606;2022-08-19T10:44:39;100819.44;;;22.02;48.75
68822;BME280;55834;50.870;4.606;2022-08-19T10:47:05;100814.50;;;22.20;48.85
68822;BME280;55834;50.870;4.606;2022-08-19T10:49:31;100810.50;;;22.37;49.36
68822;BME280;55834;50.870;4.606;2022-08-19T10:51:57;100823.84;;;21.42;49.67
68822;BME280;55834;50.870;4.606;2022-08-19T10:54:41;100817.53;;;21.67;50.36
68822;BME280;55834;50.870;4.606;2022-08-19T10:57:25;100820.03;;;21.57;49.62
68822;BME280;55834;50.870;4.606;2022-08-19T10:59:55;100815.63;;;22.40;49.14
68822;BME280;55834;50.870;4.606;2022-08-19T11:02:21;100818.22;;;22.41;48.76
68822;BME280;55834;50.870;4.606;2022-08-19T11:04:46;100815.97;;;21.76;50.32
68822;BME280;55834;50.870;4.606;2022-08-19T11:07:14;100822.59;;;21.22;50.54
68822;BME280;55834;50.870;4.606;2022-08-19T11:09:41;100819.03;;;21.71;49.89
68822;BME280;55834;50.870;4.606;2022-08-19T11:12:08;100833.44;;;21.08;51.32
68822;BME280;55834;50.870;4.606;2022-08-19T11:14:35;100827.41;;;21.67;50.86
68822;BME280;55834;50.870;4.606;2022-08-19T11:17:02;100817.84;;;22.35;49.25
68822;BME280;55834;50.870;4.606;2022-08-19T11:19:27;100827.59;;;22.71;48.78
68822;BME280;55834;50.870;4.606;2022-08-19T11:21:53;100835.59;;;22.13;48.97
68822;BME280;55834;50.870;4.606;2022-08-19T11:24:22;100833.81;;;22.25;49.52
68822;BME280;55834;50.870;4.606;2022-08-19T11:26:50;100826.22;;;22.19;49.26
68822;BME280;55834;50.870;4.606;2022-08-19T11:29:17;100823.75;;;22.16;49.43
68822;BME280;55834;50.870;4.606;2022-08-19T11:31:46;100825.94;;;21.62;50.09
68822;BME280;55834;50.870;4.606;2022-08-19T11:34:16;100842.00;;;21.26;52.24
68822;BME280;55834;50.870;4.606;2022-08-19T11:36:43;100824.44;;;21.58;51.38
68822;BME280;55834;50.870;4.606;2022-08-19T11:39:12;100825.59;;;22.15;50.47
68822;BME280;55834;50.870;4.606;2022-08-19T11:41:38;100819.91;;;22.31;49.46
68822;BME280;55834;50.870;4.606;2022-08-19T11:44:03;100825.47;;;22.52;48.92
68822;BME280;55834;50.870;4.606;2022-08-19T11:46:30;100828.06;;;21.94;49.49
68822;BME280;55834;50.870;4.606;2022-08-19T11:48:57;100826.44;;;21.92;50.81
68822;BME280;55834;50.870;4.606;2022-08-19T11:51:25;100829.78;;;21.95;51.05
68822;BME280;55834;50.870;4.606;2022-08-19T11:53:51;100831.16;;;22.01;50.38
68822;BME280;55834;50.870;4.606;2022-08-19T11:56:18;100820.75;;;22.20;49.60
68822;BME280;55834;50.870;4.606;2022-08-19T11:58:44;100828.63;;;21.00;52.97
68822;BME280;55834;50.870;4.606;2022-08-19T12:01:15;100825.31;;;21.83;50.85
68822;BME280;55834;50.870;4.606;2022-08-19T12:03:43;100826.50;;;21.79;51.22
68822;BME280;55834;50.870;4.606;2022-08-19T12:06:11;100827.31;;;21.92;51.02
68822;BME280;55834;50.870;4.606;2022-08-19T12:08:41;100821.88;;;22.05;50.64
68822;BME280;55834;50.870;4.606;2022-08-19T12:11:07;100828.28;;;21.91;51.05
68822;BME280;55834;50.870;4.606;2022-08-19T12:13:34;100834.28;;;21.95;51.37
68822;BME280;55834;50.870;4.606;2022-08-19T12:16:00;100825.50;;;22.17;50.35
68822;BME280;55834;50.870;4.606;2022-08-19T12:18:26;100826.06;;;22.44;49.99
68822;BME280;55834;50.870;4.606;2022-08-19T12:20:53;100826.06;;;22.44;49.58
68822;BME280;55834;50.870;4.606;2022-08-19T12:23:21;100821.03;;;22.75;49.01
68822;BME280;55834;50.870;4.606;2022-08-19T12:25:49;100827.28;;;22.40;49.31
68822;BME280;55834;50.870;4.606;2022-08-19T12:28:23;100826.16;;;21.83;50.54
68822;BME280;55834;50.870;4.606;2022-08-19T12:30:49;100828.69;;;21.37;52.99
68822;BME280;55834;50.870;4.606;2022-08-19T12:33:17;100831.34;;;22.46;49.64
68822;BME280;55834;50.870;4.606;2022-08-19T12:35:44;100825.31;;;22.78;48.84
68822;BME280;55834;50.870;4.606;2022-08-19T12:38:14;100823.84;;;23.07;48.23
68822;BME280;55834;50.870;4.606;2022-08-19T12:40:40;100825.41;;;23.55;47.38
68822;BME280;55834;50.870;4.606;2022-08-19T12:43:06;100819.81;;;23.90;46.27
68822;BME280;55834;50.870;4.606;2022-08-19T12:45:32;100824.56;;;23.32;47.09
68822;BME280;55834;50.870;4.606;2022-08-19T12:47:57;100815.88;;;23.39;47.28
68822;BME280;55834;50.870;4.606;2022-08-19T12:50:23;100816.25;;;23.24;47.88
68822;BME280;55834;50.870;4.606;2022-08-19T12:52:48;100810.97;;;23.56;47.69
68822;BME280;55834;50.870;4.606;2022-08-19T12:55:14;100793.41;;;24.26;46.04
68822;BME280;55834;50.870;4.606;2022-08-19T12:57:40;100791.31;;;24.08;45.93
68822;BME280;55834;50.870;4.606;2022-08-19T13:00:15;100793.72;;;23.91;47.16
68822;BME280;55834;50.870;4.606;2022-08-19T13:02:43;100793.34;;;24.37;45.67
68822;BME280;55834;50.870;4.606;2022-08-19T13:05:11;100781.22;;;24.11;45.56
68822;BME280;55834;50.870;4.606;2022-08-19T13:07:38;100784.00;;;24.41;45.11
68822;BME280;55834;50.870;4.606;2022-08-19T13:10:07;100779.03;;;23.17;46.77
68822;BME280;55834;50.870;4.606;2022-08-19T13:12:34;100772.66;;;23.84;47.04
68822;BME280;55834;50.870;4.606;2022-08-19T13:14:59;100771.16;;;24.34;45.08
68822;BME280;55834;50.870;4.606;2022-08-19T13:17:25;100772.09;;;24.65;44.41
68822;BME280;55834;50.870;4.606;2022-08-19T13:19:50;100767.66;;;24.54;44.41
68822;BME280;55834;50.870;4.606;2022-08-19T13:22:16;100776.34;;;24.04;45.28
68822;BME280;55834;50.870;4.606;2022-08-19T13:24:41;100766.22;;;24.39;44.90
68822;BME280;55834;50.870;4.606;2022-08-19T13:27:08;100764.41;;;23.54;46.14
68822;BME280;55834;50.870;4.606;2022-08-19T13:29:33;100771.94;;;23.05;47.24
68822;BME280;55834;50.870;4.606;2022-08-19T13:32:18;100767.03;;;23.76;46.53
68822;BME280;55834;50.870;4.606;2022-08-19T13:35:03;100766.44;;;24.26;44.73
68822;BME280;55834;50.870;4.606;2022-08-19T13:37:28;100758.00;;;24.40;44.69
68822;BME280;55834;50.870;4.606;2022-08-19T13:40:20;100754.47;;;24.61;43.76
68822;BME280;55834;50.870;4.606;2022-08-19T13:42:52;100752.47;;;24.42;43.42
68822;BME280;55834;50.870;4.606;2022-08-19T13:45:20;100756.03;;;23.36;45.93
68822;BME280;55834;50.870;4.606;2022-08-19T13:47:48;100755.91;;;24.02;44.30
68822;BME280;55834;50.870;4.606;2022-08-19T13:50:17;100757.09;;;24.30;43.62
68822;BME280;55834;50.870;4.606;2022-08-19T13:52:43;100756.03;;;23.13;44.83
68822;BME280;55834;50.870;4.606;2022-08-19T13:55:10;100751.06;;;23.52;45.91